createdAt,value
2023-01-17T00:01:49.349Z,99.90
2023-01-17T00:04:34.961Z,99.90
2023-01-17T00:07:20.255Z,99.90
2023-01-17T00:09:53.012Z,99.90
2023-01-17T00:12:21.634Z,99.90
2023-01-17T00:14:49.133Z,99.90
2023-01-17T00:17:16.181Z,99.90
2023-01-17T00:20:01.381Z,99.90
2023-01-17T00:22:49.590Z,99.90
2023-01-17T00:25:38.055Z,99.90
2023-01-17T00:28:05.809Z,99.90
2023-01-17T00:30:33.360Z,99.90
2023-01-17T00:33:00.594Z,99.90
2023-01-17T00:35:30.168Z,99.90
2023-01-17T00:38:17.778Z,99.90
2023-01-17T00:40:46.157Z,99.90
2023-01-17T00:43:34.620Z,99.90
2023-01-17T00:46:20.723Z,99.90
2023-01-17T00:49:06.352Z,99.90
2023-01-17T00:51:53.081Z,99.90
2023-01-17T00:54:39.028Z,99.90
2023-01-17T00:57:14.211Z,99.90
2023-01-17T01:00:03.179Z,99.90
2023-01-17T01:02:34.216Z,99.90
2023-01-17T01:05:20.226Z,99.90
2023-01-17T01:08:05.693Z,99.90
2023-01-17T01:10:52.062Z,99.90
2023-01-17T01:13:40.908Z,99.90
2023-01-17T01:16:26.854Z,99.90
2023-01-17T01:19:12.110Z,99.90
2023-01-17T01:21:57.723Z,99.90
2023-01-17T01:24:43.024Z,99.90
2023-01-17T01:27:28.507Z,99.90
2023-01-17T01:30:13.889Z,99.90
2023-01-17T01:32:59.790Z,99.90
2023-01-17T01:35:26.846Z,99.90
2023-01-17T01:37:53.819Z,99.90
2023-01-17T01:40:21.172Z,99.90
2023-01-17T01:42:52.806Z,99.90
2023-01-17T01:45:23.473Z,99.90
2023-01-17T01:47:53.960Z,99.90
2023-01-17T01:50:22.131Z,99.90
2023-01-17T01:52:51.482Z,99.90
2023-01-17T01:55:25.054Z,99.90
2023-01-17T01:57:56.546Z,99.90
2023-01-17T02:00:27.510Z,99.90
2023-01-17T02:02:56.405Z,99.90
2023-01-17T02:05:25.704Z,99.90
2023-01-17T02:07:58.696Z,99.90
2023-01-17T02:10:25.735Z,99.90
2023-01-17T02:12:54.483Z,99.90
2023-01-17T02:15:29.858Z,99.90
2023-01-17T02:18:18.963Z,99.90
2023-01-17T02:21:05.751Z,99.90
2023-01-17T02:23:35.512Z,99.90
2023-01-17T02:26:19.823Z,99.90
2023-01-17T02:29:07.044Z,99.90
2023-01-17T02:31:47.047Z,99.90
2023-01-17T02:34:24.280Z,99.90
2023-01-17T02:37:00.562Z,99.90
2023-01-17T02:39:34.625Z,99.90
2023-01-17T02:42:09.684Z,99.90
2023-01-17T02:44:44.227Z,99.90
2023-01-17T02:47:26.089Z,99.90
2023-01-17T02:49:58.355Z,99.90
2023-01-17T02:52:42.436Z,99.90
2023-01-17T02:55:34.247Z,99.90
2023-01-17T02:58:19.518Z,99.90
2023-01-17T03:01:08.016Z,99.90
2023-01-17T03:03:44.004Z,99.90
2023-01-17T03:06:22.991Z,99.90
2023-01-17T03:08:51.865Z,99.90
2023-01-17T03:11:19.165Z,99.90
2023-01-17T03:13:46.367Z,99.90
2023-01-17T03:16:21.190Z,99.90
2023-01-17T03:18:49.294Z,99.90
2023-01-17T03:21:16.571Z,99.90
2023-01-17T03:23:44.201Z,99.90
2023-01-17T03:26:14.709Z,99.90
2023-01-17T03:28:41.757Z,99.90
2023-01-17T03:31:09.387Z,99.90
2023-01-17T03:33:36.451Z,99.90
2023-01-17T03:36:03.599Z,99.90
2023-01-17T03:38:32.243Z,99.90
2023-01-17T03:40:59.298Z,99.90
2023-01-17T03:43:26.271Z,99.90
2023-01-17T03:46:01.447Z,99.90
2023-01-17T03:48:28.447Z,99.90
2023-01-17T03:50:55.801Z,99.90
2023-01-17T03:53:22.736Z,99.90
2023-01-17T03:55:49.780Z,99.90
2023-01-17T03:58:16.776Z,99.90
2023-01-17T04:00:44.016Z,99.90
2023-01-17T04:05:51.769Z,99.90
2023-01-17T04:08:18.711Z,99.90
2023-01-17T04:10:45.652Z,99.90
2023-01-17T04:13:13.730Z,99.90
2023-01-17T04:15:40.802Z,99.90
2023-01-17T04:18:07.888Z,99.90
2023-01-17T04:20:39.885Z,99.90
2023-01-17T04:23:07.636Z,99.90
2023-01-17T04:25:34.775Z,99.90
2023-01-17T04:28:03.739Z,99.90
2023-01-17T04:30:32.122Z,99.90
2023-01-17T04:33:00.667Z,99.90
2023-01-17T04:35:33.586Z,99.90
2023-01-17T04:38:00.947Z,99.90
2023-01-17T04:40:29.810Z,99.90
2023-01-17T04:43:01.748Z,99.90
2023-01-17T04:45:28.674Z,99.90
2023-01-17T04:47:55.582Z,99.90
2023-01-17T04:50:22.630Z,99.90
2023-01-17T04:52:49.592Z,99.90
2023-01-17T04:55:16.698Z,99.90
2023-01-17T04:57:43.568Z,99.90
2023-01-17T05:00:11.762Z,99.90
2023-01-17T05:02:38.742Z,99.90
2023-01-17T05:05:12.759Z,99.90
2023-01-17T05:07:45.750Z,99.90
2023-01-17T05:12:59.438Z,99.90
2023-01-17T05:15:27.414Z,99.90
2023-01-17T05:17:55.002Z,99.90
2023-01-17T05:20:23.469Z,99.90
2023-01-17T05:22:57.444Z,99.90
2023-01-17T05:25:29.504Z,99.90
2023-01-17T05:28:00.170Z,99.90
2023-01-17T05:30:29.050Z,99.90
2023-01-17T05:32:57.601Z,99.90
2023-01-17T05:35:33.698Z,99.90
2023-01-17T05:38:01.293Z,99.90
2023-01-17T05:40:31.160Z,99.90
2023-01-17T05:43:00.029Z,99.90
2023-01-17T05:45:28.804Z,99.90
2023-01-17T05:47:56.846Z,99.90
2023-01-17T05:50:27.267Z,99.90
2023-01-17T05:52:59.747Z,99.90
2023-01-17T05:55:28.414Z,99.90
2023-01-17T05:57:56.018Z,99.90
2023-01-17T06:00:24.196Z,99.90
2023-01-17T06:02:54.523Z,99.90
2023-01-17T06:05:22.904Z,99.90
2023-01-17T06:07:50.399Z,99.90
2023-01-17T06:10:19.293Z,99.90
2023-01-17T06:12:46.973Z,99.90
2023-01-17T06:15:16.273Z,99.90
2023-01-17T06:17:43.256Z,99.90
2023-01-17T06:20:12.301Z,99.90
2023-01-17T06:22:39.290Z,99.90
2023-01-17T06:25:07.467Z,99.90
2023-01-17T06:27:34.439Z,99.90
2023-01-17T06:30:01.453Z,99.90
2023-01-17T06:32:28.343Z,99.90
2023-01-17T06:34:55.192Z,99.90
2023-01-17T06:37:22.382Z,99.90
2023-01-17T06:39:49.716Z,99.90
2023-01-17T06:42:16.608Z,99.90
2023-01-17T06:44:43.464Z,99.90
2023-01-17T06:47:10.545Z,99.90
2023-01-17T06:49:37.672Z,99.90
2023-01-17T06:52:04.878Z,99.90
2023-01-17T06:54:31.806Z,99.90
2023-01-17T06:56:58.682Z,99.90
2023-01-17T07:02:04.281Z,99.90
2023-01-17T07:04:31.363Z,99.90
2023-01-17T07:06:58.296Z,99.90
2023-01-17T07:09:25.255Z,99.90
2023-01-17T07:11:59.597Z,99.90
2023-01-17T07:14:26.643Z,99.90
2023-01-17T07:16:53.780Z,99.90
2023-01-17T07:19:21.014Z,99.90
2023-01-17T07:21:52.309Z,99.90
2023-01-17T07:24:19.873Z,99.90
2023-01-17T07:26:51.233Z,99.90
2023-01-17T07:29:18.826Z,99.90
2023-01-17T07:31:45.937Z,99.90
2023-01-17T07:34:12.787Z,99.90
2023-01-17T07:36:39.788Z,99.90
2023-01-17T07:39:06.766Z,99.90
2023-01-17T07:41:41.056Z,99.90
2023-01-17T07:44:10.839Z,99.90
2023-01-17T07:46:37.779Z,99.90
2023-01-17T07:49:04.749Z,99.90
2023-01-17T07:51:31.957Z,99.90
2023-01-17T07:53:58.907Z,99.90
2023-01-17T07:56:25.887Z,99.90
2023-01-17T07:58:54.513Z,99.90
2023-01-17T08:04:00.234Z,99.90
2023-01-17T08:06:29.282Z,99.90
2023-01-17T08:08:57.167Z,99.90
2023-01-17T08:11:24.201Z,99.90
2023-01-17T08:13:57.415Z,99.90
2023-01-17T08:16:25.109Z,99.90
2023-01-17T08:18:53.117Z,99.90
2023-01-17T08:21:20.940Z,99.90
2023-01-17T08:23:51.532Z,99.90
2023-01-17T08:26:22.256Z,99.90
2023-01-17T08:28:57.598Z,99.90
2023-01-17T08:31:24.905Z,99.90
2023-01-17T08:33:52.043Z,99.90
2023-01-17T08:36:19.278Z,99.90
2023-01-17T08:38:46.234Z,99.90
2023-01-17T08:41:13.371Z,99.90
2023-01-17T08:43:40.408Z,99.90
2023-01-17T08:46:07.383Z,99.90
2023-01-17T08:48:34.421Z,99.90
2023-01-17T08:51:02.692Z,99.90
2023-01-17T08:53:29.992Z,99.90
2023-01-17T08:56:02.411Z,99.90
2023-01-17T08:58:31.014Z,99.90
2023-01-17T09:01:06.217Z,99.90
2023-01-17T09:03:34.872Z,99.90
2023-01-17T09:06:06.976Z,99.90
2023-01-17T09:08:34.932Z,99.90
2023-01-17T09:11:11.105Z,99.90
2023-01-17T09:13:38.461Z,99.90
2023-01-17T09:16:06.230Z,99.90
2023-01-17T09:18:34.919Z,99.90
2023-01-17T09:21:13.550Z,99.90
2023-01-17T09:23:41.097Z,99.90
2023-01-17T09:26:19.910Z,99.90
2023-01-17T09:28:46.871Z,99.90
2023-01-17T09:31:16.556Z,99.90
2023-01-17T09:33:44.329Z,99.90
2023-01-17T09:36:11.460Z,99.90
2023-01-17T09:38:38.618Z,97.20
2023-01-17T09:41:18.580Z,93.40
2023-01-17T09:43:49.769Z,86.70
2023-01-17T09:46:23.833Z,80.50
2023-01-17T09:48:58.955Z,80.40
2023-01-17T09:51:26.007Z,72.40
2023-01-17T09:53:56.643Z,80.60
2023-01-17T09:56:29.623Z,84.50
2023-01-17T09:59:11.267Z,88.10
2023-01-17T10:01:45.709Z,87.50
2023-01-17T10:04:33.906Z,90.20
2023-01-17T10:07:11.586Z,90.70
2023-01-17T10:23:04.097Z,84.00
2023-01-17T10:25:43.890Z,77.00
2023-01-17T10:28:19.544Z,79.60
2023-01-17T10:30:49.903Z,76.00
2023-01-17T10:33:21.296Z,73.80
2023-01-17T10:35:59.395Z,76.00
2023-01-17T10:38:35.973Z,75.50
2023-01-17T10:41:14.361Z,72.70
2023-01-17T10:44:01.847Z,75.30
2023-01-17T10:46:45.161Z,76.20
2023-01-17T10:49:18.959Z,75.60
2023-01-17T10:52:00.449Z,75.90
2023-01-17T10:54:53.123Z,72.20
2023-01-17T10:57:25.399Z,74.00
2023-01-17T10:59:57.826Z,74.10
2023-01-17T11:02:26.826Z,72.60
2023-01-17T11:04:58.715Z,69.80
2023-01-17T11:07:29.073Z,69.30
2023-01-17T11:09:59.469Z,68.70
2023-01-17T11:12:29.915Z,70.50
2023-01-17T11:17:43.842Z,68.40
2023-01-17T11:20:13.893Z,68.10
2023-01-17T11:22:46.016Z,68.60
2023-01-17T11:25:22.447Z,66.70
2023-01-17T11:28:06.012Z,64.40
2023-01-17T11:30:33.293Z,61.60
2023-01-17T11:33:04.278Z,66.20
2023-01-17T11:35:36.951Z,65.00
2023-01-17T11:38:21.396Z,62.60
2023-01-17T11:40:49.729Z,61.40
2023-01-17T11:43:21.302Z,63.10
2023-01-17T11:46:18.724Z,62.00
2023-01-17T11:48:53.438Z,58.30
2023-01-17T11:51:34.875Z,60.30
2023-01-17T11:54:22.008Z,60.40
2023-01-17T11:56:50.671Z,56.50
2023-01-17T11:59:37.628Z,59.70
2023-01-17T12:02:24.803Z,58.10
2023-01-17T12:05:01.688Z,59.10
2023-01-17T12:07:49.810Z,59.50
2023-01-17T12:10:31.030Z,59.30
2023-01-17T12:13:44.426Z,58.20
2023-01-17T12:16:47.071Z,58.00
2023-01-17T12:19:45.681Z,58.20
2023-01-17T12:22:40.571Z,55.50
2023-01-17T12:25:18.926Z,53.30
2023-01-17T12:28:11.433Z,56.50
2023-01-17T12:31:15.622Z,54.60
2023-01-17T12:33:56.919Z,54.30
2023-01-17T12:36:33.201Z,55.00
2023-01-17T12:39:06.011Z,56.30
2023-01-17T12:41:56.419Z,56.40
2023-01-17T12:44:39.224Z,59.00
2023-01-17T12:47:07.277Z,57.60
2023-01-17T12:49:52.494Z,55.40
2023-01-17T12:52:42.938Z,55.00
2023-01-17T12:55:19.328Z,53.60
2023-01-17T12:57:56.014Z,52.70
2023-01-17T13:00:26.819Z,53.00
2023-01-17T13:03:23.955Z,52.80
2023-01-17T13:05:52.448Z,51.80
2023-01-17T13:08:48.299Z,52.60
2023-01-17T13:11:27.796Z,52.00
2023-01-17T13:13:57.527Z,50.90
2023-01-17T13:16:34.053Z,51.80
2023-01-17T13:19:20.491Z,51.80
2023-01-17T13:21:49.025Z,51.40
2023-01-17T13:24:26.605Z,50.90
2023-01-17T13:27:02.472Z,50.40
2023-01-17T13:29:35.289Z,50.80
2023-01-17T13:32:32.151Z,51.30
2023-01-17T13:35:10.885Z,49.50
2023-01-17T13:37:59.760Z,52.20
2023-01-17T13:41:05.550Z,52.40
2023-01-17T13:43:39.426Z,53.20
2023-01-17T13:46:07.236Z,52.20
2023-01-17T13:48:40.887Z,52.50
2023-01-17T13:51:10.086Z,53.30
2023-01-17T13:53:37.139Z,52.80
2023-01-17T13:56:19.219Z,52.30
2023-01-17T13:58:50.225Z,52.90
2023-01-17T14:01:23.402Z,53.40
2023-01-17T14:03:50.508Z,52.50
2023-01-17T14:06:37.722Z,53.30
2023-01-17T14:09:16.394Z,52.80
2023-01-17T14:12:06.659Z,51.80
2023-01-17T14:14:45.448Z,52.50
2023-01-17T14:17:42.058Z,53.00
2023-01-17T14:20:09.125Z,53.70
2023-01-17T14:22:39.178Z,56.40
2023-01-17T14:25:12.250Z,57.50
2023-01-17T14:28:02.553Z,58.50
2023-01-17T14:30:32.672Z,59.40
2023-01-17T14:33:02.255Z,59.80
2023-01-17T14:35:52.609Z,60.50
2023-01-17T14:38:23.369Z,61.30
2023-01-17T14:41:16.304Z,61.70
2023-01-17T14:43:45.299Z,62.30
2023-01-17T14:46:26.790Z,62.30
2023-01-17T14:49:02.230Z,63.10
2023-01-17T14:51:29.588Z,63.30
2023-01-17T14:54:07.830Z,63.20
2023-01-17T14:56:34.844Z,63.50
2023-01-17T14:59:21.174Z,63.70
2023-01-17T15:02:07.506Z,63.90
2023-01-17T15:04:39.660Z,64.40
2023-01-17T15:07:11.486Z,64.50
2023-01-17T15:09:38.602Z,64.90
2023-01-17T15:12:14.527Z,65.40
2023-01-17T15:14:45.807Z,66.20
2023-01-17T15:17:24.908Z,66.40
2023-01-17T15:19:57.306Z,67.30
2023-01-17T15:22:26.366Z,67.60
2023-01-17T15:24:54.519Z,68.00
2023-01-17T15:27:21.816Z,67.90
2023-01-17T15:29:49.343Z,68.40
2023-01-17T15:32:28.029Z,69.20
2023-01-17T15:34:55.136Z,69.20
2023-01-17T15:37:22.371Z,70.10
2023-01-17T15:39:49.500Z,70.30
2023-01-17T15:42:24.361Z,70.50
2023-01-17T15:44:56.960Z,70.90
2023-01-17T15:47:33.278Z,71.70
2023-01-17T15:50:02.621Z,71.50
2023-01-17T15:52:29.744Z,72.00
2023-01-17T15:55:12.575Z,72.10
2023-01-17T15:57:40.019Z,73.00
2023-01-17T16:00:12.497Z,72.70
2023-01-17T16:02:56.143Z,73.20
2023-01-17T16:05:31.065Z,74.40
2023-01-17T16:08:38.651Z,74.20
2023-01-17T16:11:07.372Z,75.10
2023-01-17T16:13:38.649Z,75.00
2023-01-17T18:09:10.053Z,90.60
2023-01-17T18:11:38.806Z,90.60
2023-01-17T18:14:07.090Z,91.00
2023-01-17T18:16:36.929Z,91.40
2023-01-17T18:19:04.863Z,92.40
2023-01-17T18:21:37.924Z,92.70
2023-01-17T18:24:10.552Z,93.30
2023-01-17T18:26:38.882Z,93.70
2023-01-17T18:29:07.724Z,94.30
2023-01-17T18:31:34.730Z,94.50
2023-01-17T18:34:06.759Z,94.50
2023-01-17T18:36:37.034Z,94.60
2023-01-17T18:39:36.199Z,95.20
2023-01-17T18:42:03.191Z,95.80
2023-01-17T18:44:30.286Z,95.50
2023-01-17T18:47:04.573Z,95.60
2023-01-17T18:49:33.568Z,96.60
2023-01-17T18:52:00.787Z,96.60
2023-01-17T18:54:28.316Z,96.60
2023-01-17T18:56:56.088Z,96.70
2023-01-17T18:59:23.561Z,97.70
2023-01-17T19:01:50.767Z,97.40
2023-01-17T19:04:19.067Z,97.80
2023-01-17T19:06:48.035Z,98.20
2023-01-17T19:09:16.130Z,98.60
2023-01-17T19:11:44.978Z,98.90
2023-01-17T19:14:12.817Z,98.50
2023-01-17T19:16:46.140Z,99.50
2023-01-17T19:19:15.494Z,99.90
2023-01-17T19:21:43.006Z,99.90
2023-01-17T19:24:13.256Z,99.90
2023-01-17T19:26:40.796Z,99.90
2023-01-17T19:29:07.864Z,99.90
2023-01-17T19:31:42.469Z,99.90
2023-01-17T19:34:10.423Z,99.90
2023-01-17T19:36:38.250Z,99.90
2023-01-17T19:39:07.660Z,99.90
2023-01-17T19:41:36.927Z,99.90
2023-01-17T19:44:06.491Z,99.90
2023-01-17T19:46:34.406Z,99.90
2023-01-17T19:49:02.228Z,99.90
2023-01-17T19:51:29.302Z,99.90
2023-01-17T19:53:59.173Z,99.90
2023-01-17T19:56:26.800Z,99.90
2023-01-17T19:58:54.012Z,99.90
2023-01-17T20:01:24.731Z,99.90
2023-01-17T20:03:52.505Z,99.90
2023-01-17T20:06:21.927Z,99.90
2023-01-17T20:08:48.965Z,99.90
2023-01-17T20:11:19.628Z,99.90
2023-01-17T20:13:48.369Z,99.90
2023-01-17T20:16:18.330Z,99.90
2023-01-17T20:18:45.789Z,99.90
2023-01-17T20:21:17.375Z,99.90
2023-01-17T20:23:47.060Z,99.90
2023-01-17T20:26:17.802Z,99.90
2023-01-17T20:28:46.959Z,99.90
2023-01-17T20:31:20.289Z,99.90
2023-01-17T20:33:50.401Z,99.90
2023-01-17T20:36:19.257Z,99.90
2023-01-17T20:38:48.736Z,99.90
2023-01-17T20:41:22.872Z,99.90
2023-01-17T20:43:50.973Z,99.90
2023-01-17T20:46:19.301Z,99.90
2023-01-17T20:48:55.790Z,99.90
2023-01-17T20:51:24.943Z,99.90
2023-01-17T20:53:55.965Z,99.90
2023-01-17T20:56:26.679Z,99.90
2023-01-17T20:58:54.653Z,99.90
2023-01-17T21:01:24.764Z,99.90
2023-01-17T22:08:47.097Z,99.90
2023-01-17T22:11:19.990Z,99.90
2023-01-17T22:13:47.404Z,99.90
2023-01-17T22:16:17.647Z,99.90
2023-01-17T22:18:45.481Z,99.90
2023-01-17T22:21:15.169Z,99.90
2023-01-17T22:23:54.759Z,99.90
2023-01-17T22:26:24.217Z,99.90
2023-01-17T22:28:51.273Z,99.90
2023-01-17T22:31:27.011Z,99.90
2023-01-17T22:34:02.812Z,99.90
2023-01-17T22:36:34.056Z,99.90
2023-01-17T22:39:01.403Z,99.90
2023-01-17T22:41:30.230Z,99.90
2023-01-17T22:44:02.045Z,99.90
2023-01-17T22:46:30.934Z,99.90
2023-01-17T22:48:59.024Z,99.90
2023-01-17T22:51:28.554Z,99.90
2023-01-17T22:53:58.166Z,99.90
2023-01-17T22:56:31.294Z,99.90
2023-01-17T22:59:00.814Z,99.90
2023-01-17T23:01:30.373Z,99.90
2023-01-17T23:04:01.938Z,99.90
2023-01-17T23:06:37.121Z,99.90
2023-01-17T23:09:07.586Z,99.90
2023-01-17T23:11:47.124Z,99.90
2023-01-17T23:14:29.424Z,99.90
2023-01-17T23:17:23.080Z,99.90
2023-01-17T23:19:52.480Z,99.90
2023-01-17T23:22:24.537Z,99.90
2023-01-17T23:24:59.091Z,99.90
2023-01-17T23:27:49.516Z,99.90
2023-01-17T23:30:25.011Z,99.90
2023-01-17T23:33:00.243Z,99.90
2023-01-17T23:35:30.155Z,99.90
2023-01-17T23:38:16.042Z,99.90
2023-01-17T23:40:43.649Z,99.90
2023-01-17T23:43:23.482Z,99.90
2023-01-17T23:45:54.823Z,99.90
2023-01-17T23:48:25.710Z,99.90
2023-01-17T23:51:01.272Z,99.90
2023-01-17T23:53:28.707Z,99.90
2023-01-17T23:55:57.163Z,99.90
2023-01-17T23:58:26.874Z,99.90
